createdAt,value
2024-04-23T00:00:50.010Z,2.95
2024-04-23T00:03:16.596Z,2.96
2024-04-23T00:05:43.157Z,2.96
2024-04-23T00:08:09.612Z,2.96
2024-04-23T00:10:36.257Z,2.96
2024-04-23T00:13:02.739Z,2.95
2024-04-23T00:15:29.213Z,2.94
2024-04-23T00:17:55.743Z,2.93
2024-04-23T00:20:22.394Z,2.92
2024-04-23T00:22:49.020Z,2.91
2024-04-23T00:25:15.669Z,2.90
2024-04-23T00:27:42.137Z,2.91
2024-04-23T00:30:09.114Z,2.93
2024-04-23T00:32:35.651Z,2.94
2024-04-23T00:35:02.864Z,2.95
2024-04-23T00:37:29.409Z,2.95
2024-04-23T00:39:56.005Z,2.97
2024-04-23T00:42:22.727Z,2.97
2024-04-23T00:44:51.581Z,2.97
2024-04-23T00:47:18.473Z,2.96
2024-04-23T00:49:45.133Z,2.98
2024-04-23T00:52:11.585Z,3.00
2024-04-23T00:54:38.334Z,3.03
2024-04-23T00:57:04.752Z,3.06
2024-04-23T00:59:31.634Z,3.10
2024-04-23T01:01:59.034Z,3.16
2024-04-23T01:04:25.778Z,3.18
2024-04-23T01:06:53.003Z,3.17
2024-04-23T01:09:20.728Z,3.14
2024-04-23T01:11:48.995Z,3.13
2024-04-23T01:14:15.534Z,3.12
2024-04-23T01:16:45.625Z,3.04
2024-04-23T01:19:25.131Z,2.92
2024-04-23T01:22:02.952Z,2.86
2024-04-23T01:24:35.735Z,2.82
2024-04-23T01:27:03.653Z,2.77
2024-04-23T01:29:31.690Z,2.74
2024-04-23T01:31:59.761Z,2.75
2024-04-23T01:34:29.532Z,2.77
2024-04-23T01:36:56.612Z,2.80
2024-04-23T01:39:24.811Z,2.84
2024-04-23T01:41:52.072Z,2.86
2024-04-23T01:44:19.915Z,2.88
2024-04-23T01:46:47.385Z,2.88
2024-04-23T01:49:14.145Z,2.88
2024-04-23T01:51:41.125Z,2.86
2024-04-23T01:54:07.536Z,2.84
2024-04-23T01:56:34.035Z,2.84
2024-04-23T01:59:00.631Z,2.84
2024-04-23T02:01:29.837Z,2.82
2024-04-23T02:03:56.558Z,2.77
2024-04-23T02:06:23.944Z,2.75
2024-04-23T02:08:52.732Z,2.71
2024-04-23T02:11:19.376Z,2.66
2024-04-23T02:13:46.037Z,2.61
2024-04-23T02:19:13.966Z,2.49
2024-04-23T02:21:40.424Z,2.47
2024-04-23T02:24:06.894Z,2.45
2024-04-23T02:26:33.339Z,2.44
2024-04-23T02:28:59.878Z,2.42
2024-04-23T02:31:26.490Z,2.40
2024-04-23T02:33:52.989Z,2.39
2024-04-23T02:36:19.441Z,2.37
2024-04-23T02:38:45.892Z,2.35
2024-04-23T02:41:12.364Z,2.35
2024-04-23T02:43:38.895Z,2.34
2024-04-23T02:46:05.490Z,2.29
2024-04-23T02:48:31.914Z,2.29
2024-04-23T02:50:58.411Z,2.28
2024-04-23T02:53:24.957Z,2.31
2024-04-23T02:55:51.467Z,2.32
2024-04-23T02:58:18.040Z,2.32
2024-04-23T03:00:44.494Z,2.33
2024-04-23T03:03:11.037Z,2.35
2024-04-23T03:05:37.572Z,2.39
2024-04-23T03:08:04.479Z,2.41
2024-04-23T03:10:30.958Z,2.44
2024-04-23T03:12:57.993Z,2.44
2024-04-23T03:15:24.494Z,2.44
2024-04-23T03:17:51.073Z,2.46
2024-04-23T03:20:18.382Z,2.45
2024-04-23T03:22:44.856Z,2.45
2024-04-23T03:25:11.366Z,2.45
2024-04-23T03:27:37.946Z,2.46
2024-04-23T03:30:04.760Z,2.47
2024-04-23T03:32:31.473Z,2.50
2024-04-23T03:34:58.209Z,2.51
2024-04-23T03:37:25.084Z,2.50
2024-04-23T03:39:51.530Z,2.49
2024-04-23T03:42:18.018Z,2.46
2024-04-23T03:44:46.707Z,2.43
2024-04-23T03:47:14.436Z,2.43
2024-04-23T03:49:40.967Z,2.43
2024-04-23T03:52:11.289Z,2.42
2024-04-23T03:54:38.143Z,2.42
2024-04-23T03:57:04.634Z,2.42
2024-04-23T03:59:31.169Z,2.40
2024-04-23T04:02:16.225Z,2.37
2024-04-23T04:05:01.652Z,2.35
2024-04-23T04:07:28.192Z,2.35
2024-04-23T04:09:55.280Z,2.40
2024-04-23T04:12:21.731Z,2.46
2024-04-23T04:14:48.237Z,2.47
2024-04-23T04:17:14.855Z,2.44
2024-04-23T04:19:42.109Z,2.44
2024-04-23T04:22:08.783Z,2.42
2024-04-23T04:24:35.260Z,2.40
2024-04-23T04:27:01.758Z,2.39
2024-04-23T04:29:28.288Z,2.38
2024-04-23T04:31:54.788Z,2.42
2024-04-23T04:34:21.921Z,2.47
2024-04-23T04:36:48.609Z,2.57
2024-04-23T04:39:15.147Z,2.68
2024-04-23T04:41:41.596Z,2.77
2024-04-23T04:44:08.129Z,2.82
2024-04-23T04:46:34.832Z,2.85
2024-04-23T04:49:01.429Z,2.89
2024-04-23T04:51:27.846Z,2.94
2024-04-23T04:53:54.335Z,3.02
2024-04-23T04:56:20.914Z,3.09
2024-04-23T04:58:47.559Z,3.13
2024-04-23T05:01:14.220Z,3.16
2024-04-23T05:03:40.787Z,3.16
2024-04-23T05:06:08.009Z,3.17
2024-04-23T05:08:34.447Z,3.24
2024-04-23T05:11:01.153Z,3.33
2024-04-23T05:13:27.783Z,3.44
2024-04-23T05:15:54.241Z,3.55
2024-04-23T05:18:20.769Z,3.61
2024-04-23T05:20:47.396Z,3.67
2024-04-23T05:23:13.824Z,3.72
2024-04-23T05:25:41.544Z,3.76
2024-04-23T05:28:08.138Z,3.86
2024-04-23T05:30:53.718Z,3.92
2024-04-23T05:33:20.288Z,4.02
2024-04-23T05:35:46.844Z,4.12
2024-04-23T05:38:16.066Z,4.18
2024-04-23T05:40:44.038Z,4.24
2024-04-23T05:43:10.673Z,4.34
2024-04-23T05:45:37.233Z,4.50
2024-04-23T05:48:41.704Z,4.62
2024-04-23T05:52:12.560Z,4.80
2024-04-23T05:55:39.323Z,5.00
2024-04-23T05:58:06.620Z,5.16
2024-04-23T06:00:33.865Z,5.30
2024-04-23T06:03:01.422Z,5.41
2024-04-23T06:05:28.608Z,5.52
2024-04-23T06:07:56.787Z,5.69
2024-04-23T06:10:23.356Z,5.82
2024-04-23T06:12:51.241Z,5.98
2024-04-23T06:15:18.738Z,6.13
2024-04-23T06:17:47.897Z,6.31
2024-04-23T06:20:15.733Z,6.47
2024-04-23T06:22:43.470Z,6.66
2024-04-23T06:25:11.636Z,6.85
2024-04-23T06:27:39.668Z,7.03
2024-04-23T06:30:11.220Z,7.23
2024-04-23T06:32:40.107Z,7.52
2024-04-23T06:35:08.559Z,7.86
2024-04-23T06:37:35.242Z,8.12
2024-04-23T06:40:05.451Z,8.78
2024-04-23T06:42:32.187Z,9.40
2024-04-23T06:44:58.742Z,9.72
2024-04-23T06:47:26.026Z,10.13
2024-04-23T06:49:52.756Z,10.45
2024-04-23T06:52:19.425Z,10.84
2024-04-23T06:54:46.198Z,11.22
2024-04-23T06:57:14.132Z,11.37
2024-04-23T06:59:43.889Z,11.75
2024-04-23T07:04:38.391Z,12.21
2024-04-23T07:07:08.020Z,12.61
2024-04-23T07:09:34.838Z,13.25
2024-04-23T07:12:01.376Z,13.34
2024-04-23T07:14:28.041Z,12.85
2024-04-23T07:16:54.690Z,12.19
2024-04-23T07:19:21.439Z,11.62
2024-04-23T07:21:47.922Z,11.20
2024-04-23T07:24:14.522Z,10.80
2024-04-23T07:26:42.785Z,10.30
2024-04-23T07:29:09.529Z,9.83
2024-04-23T07:31:36.528Z,9.44
2024-04-23T07:34:03.246Z,9.03
2024-04-23T07:36:29.865Z,8.73
2024-04-23T07:38:56.726Z,8.52
2024-04-23T07:41:23.540Z,8.39
2024-04-23T07:43:50.323Z,8.20
2024-04-23T07:46:17.280Z,8.07
2024-04-23T07:48:43.721Z,7.98
2024-04-23T07:51:10.360Z,7.91
2024-04-23T07:53:37.100Z,7.80
2024-04-23T07:56:04.416Z,7.79
2024-04-23T07:58:31.102Z,7.82
2024-04-23T08:00:57.911Z,7.80
2024-04-23T08:03:24.547Z,7.82
2024-04-23T08:05:55.506Z,7.83
2024-04-23T08:08:25.092Z,7.77
2024-04-23T08:10:51.729Z,7.56
2024-04-23T08:13:22.023Z,7.35
2024-04-23T08:15:48.619Z,7.32
2024-04-23T08:18:15.457Z,7.47
2024-04-23T08:20:42.910Z,7.78
2024-04-23T08:23:10.146Z,8.08
2024-04-23T08:25:37.298Z,8.33
2024-04-23T08:28:04.048Z,8.48
2024-04-23T08:30:30.705Z,8.47
2024-04-23T08:32:57.446Z,8.35
2024-04-23T08:35:24.240Z,8.28
2024-04-23T08:37:50.930Z,8.40
2024-04-23T08:40:17.651Z,8.60
2024-04-23T08:42:47.166Z,8.71
2024-04-23T08:45:15.494Z,8.85
2024-04-23T08:47:42.953Z,9.07
2024-04-23T08:50:10.746Z,9.29
2024-04-23T08:52:38.874Z,9.53
2024-04-23T08:55:06.552Z,9.86
2024-04-23T08:57:34.280Z,10.18
2024-04-23T09:00:03.669Z,10.33
2024-04-23T09:02:37.573Z,10.38
2024-04-23T09:05:06.376Z,10.50
2024-04-23T09:07:34.862Z,10.70
2024-04-23T09:10:06.203Z,10.90
2024-04-23T09:12:33.829Z,11.13
2024-04-23T09:15:01.168Z,11.28
2024-04-23T09:17:32.944Z,11.21
2024-04-23T09:20:01.070Z,11.35
2024-04-23T09:22:28.130Z,11.52
2024-04-23T09:25:03.092Z,11.61
2024-04-23T09:27:32.916Z,11.63
2024-04-23T09:29:59.472Z,11.70
2024-04-23T09:32:26.337Z,11.91
2024-04-23T09:34:55.225Z,12.17
2024-04-23T09:37:21.956Z,12.18
2024-04-23T09:39:48.462Z,12.21
2024-04-23T09:42:23.155Z,12.31
2024-04-23T09:44:51.581Z,12.30
2024-04-23T09:47:18.223Z,12.30
2024-04-23T09:49:54.941Z,12.14
2024-04-23T09:52:36.219Z,12.43
2024-04-23T09:55:06.244Z,13.76
2024-04-23T09:57:35.220Z,15.38
2024-04-23T10:00:03.958Z,16.63
2024-04-23T10:02:31.391Z,17.34
2024-04-23T10:05:06.505Z,17.96
2024-04-23T10:07:41.838Z,17.89
2024-04-23T10:10:09.783Z,17.80
2024-04-23T10:12:42.548Z,17.90
2024-04-23T10:15:19.977Z,18.03
2024-04-23T10:17:51.611Z,17.85
2024-04-23T10:20:23.763Z,17.64
2024-04-23T10:22:55.156Z,18.74
2024-04-23T10:25:22.170Z,19.96
2024-04-23T10:27:50.922Z,21.06
2024-04-23T10:30:18.285Z,21.38
2024-04-23T10:32:45.993Z,21.57
2024-04-23T10:35:17.468Z,21.67
2024-04-23T10:37:45.485Z,21.76
2024-04-23T10:40:14.894Z,21.99
2024-04-23T10:42:41.468Z,21.77
2024-04-23T10:45:08.772Z,22.17
2024-04-23T10:47:35.427Z,22.08
2024-04-23T10:50:09.058Z,22.12
2024-04-23T10:52:36.390Z,21.71
2024-04-23T10:55:08.877Z,21.18
2024-04-23T10:57:36.811Z,21.36
2024-04-23T11:00:04.989Z,20.85
2024-04-23T11:02:38.205Z,20.21
2024-04-23T11:05:08.504Z,20.44
2024-04-23T11:07:37.740Z,20.70
2024-04-23T11:10:07.101Z,21.17
2024-04-23T11:12:37.325Z,21.63
2024-04-23T11:15:14.439Z,21.73
2024-04-23T11:17:42.100Z,21.19
2024-04-23T11:20:09.755Z,20.11
2024-04-23T11:22:54.274Z,19.47
2024-04-23T11:25:34.254Z,18.67
2024-04-23T11:28:02.281Z,17.89
2024-04-23T11:30:28.972Z,17.35
2024-04-23T11:33:00.788Z,16.86
2024-04-23T11:35:28.382Z,16.05
2024-04-23T11:37:57.322Z,15.72
2024-04-23T11:40:23.921Z,15.69
2024-04-23T11:42:50.531Z,15.68
2024-04-23T11:45:16.980Z,15.63
2024-04-23T11:47:44.718Z,15.70
2024-04-23T11:50:14.648Z,15.81
2024-04-23T11:52:42.317Z,15.81
2024-04-23T11:55:10.238Z,15.81
2024-04-23T11:57:39.904Z,15.73
2024-04-23T12:00:07.383Z,15.68
2024-04-23T12:02:34.082Z,15.73
2024-04-23T12:05:05.766Z,15.82
2024-04-23T12:07:35.146Z,15.37
2024-04-23T12:10:04.914Z,15.15
2024-04-23T12:12:37.027Z,15.60
2024-04-23T12:15:05.748Z,16.37
2024-04-23T12:17:34.438Z,16.78
2024-04-23T12:20:01.101Z,16.75
2024-04-23T12:22:27.834Z,16.98
2024-04-23T12:24:55.060Z,17.10
2024-04-23T12:27:24.839Z,17.40
2024-04-23T12:29:52.678Z,17.05
2024-04-23T12:32:24.585Z,17.10
2024-04-23T12:34:57.398Z,16.97
2024-04-23T12:37:24.315Z,16.68
2024-04-23T12:39:54.079Z,16.73
2024-04-23T12:42:25.869Z,17.04
2024-04-23T12:44:52.509Z,17.82
2024-04-23T12:47:19.452Z,18.40
2024-04-23T12:49:46.300Z,18.92
2024-04-23T12:52:12.960Z,19.72
2024-04-23T12:54:40.312Z,20.01
2024-04-23T12:57:10.511Z,20.00
2024-04-23T12:59:38.879Z,19.33
2024-04-23T13:02:08.685Z,18.05
2024-04-23T13:04:35.668Z,17.56
2024-04-23T13:07:02.187Z,17.68
2024-04-23T13:09:28.813Z,17.73
2024-04-23T13:11:57.480Z,17.41
2024-04-23T13:14:24.180Z,16.80
2024-04-23T13:16:52.068Z,16.27
2024-04-23T13:19:24.585Z,15.61
2024-04-23T13:21:51.288Z,14.98
2024-04-23T13:24:17.693Z,14.71
2024-04-23T13:26:44.403Z,15.12
2024-04-23T13:29:13.971Z,15.49
2024-04-23T13:31:40.680Z,15.63
2024-04-23T13:34:10.872Z,15.60
2024-04-23T13:36:37.443Z,15.59
2024-04-23T13:39:04.000Z,15.82
2024-04-23T13:41:30.557Z,15.93
2024-04-23T13:43:57.275Z,15.51
2024-04-23T13:46:23.770Z,15.19
2024-04-23T13:48:50.426Z,15.35
2024-04-23T13:51:17.067Z,15.39
2024-04-23T13:53:46.121Z,15.35
2024-04-23T13:56:12.930Z,15.33
2024-04-23T13:58:40.027Z,15.28
2024-04-23T14:01:10.448Z,15.22
2024-04-23T14:03:38.066Z,15.00
2024-04-23T14:06:05.980Z,14.88
2024-04-23T14:08:36.366Z,14.77
2024-04-23T14:11:04.955Z,14.80
2024-04-23T14:13:36.410Z,14.78
2024-04-23T14:16:11.275Z,14.93
2024-04-23T14:18:38.505Z,15.08
2024-04-23T14:21:05.529Z,15.39
2024-04-23T14:23:35.639Z,15.56
2024-04-23T14:26:03.115Z,15.69
2024-04-23T14:28:32.816Z,15.81
2024-04-23T14:31:05.451Z,15.77
2024-04-23T14:33:32.809Z,15.25
2024-04-23T14:36:04.393Z,14.40
2024-04-23T14:38:32.208Z,13.83
2024-04-23T14:41:03.194Z,13.57
2024-04-23T14:43:30.168Z,13.44
2024-04-23T14:45:57.271Z,13.22
2024-04-23T14:48:24.565Z,13.24
2024-04-23T14:50:51.847Z,13.31
2024-04-23T14:53:21.653Z,13.29
2024-04-23T14:56:01.083Z,13.10
2024-04-23T14:58:28.412Z,12.80
2024-04-23T15:00:55.295Z,12.65
2024-04-23T15:03:22.228Z,12.30
2024-04-23T15:05:49.170Z,11.89
2024-04-23T15:08:16.156Z,11.60
2024-04-23T15:10:49.706Z,11.46
2024-04-23T15:13:22.288Z,11.39
2024-04-23T15:15:58.435Z,11.37
2024-04-23T15:18:25.102Z,11.40
2024-04-23T15:20:51.662Z,11.38
2024-04-23T15:23:18.256Z,11.37
2024-04-23T15:25:44.912Z,11.29
2024-04-23T15:28:11.509Z,11.13
2024-04-23T15:30:37.970Z,11.05
2024-04-23T15:33:05.155Z,10.88
2024-04-23T15:35:32.566Z,10.82
2024-04-23T15:37:59.177Z,10.80
2024-04-23T15:40:25.755Z,10.85
2024-04-23T15:42:52.211Z,10.94
2024-04-23T15:45:18.787Z,11.03
2024-04-23T15:47:45.453Z,10.90
2024-04-23T15:50:15.437Z,10.64
2024-04-23T15:52:44.847Z,10.42
2024-04-23T15:55:12.620Z,10.26
2024-04-23T15:57:39.177Z,10.14
2024-04-23T16:00:07.112Z,10.09
2024-04-23T16:02:34.299Z,10.10
2024-04-23T16:05:02.100Z,10.07
2024-04-23T16:07:31.820Z,10.13
2024-04-23T16:09:58.468Z,10.18
2024-04-23T16:12:24.995Z,10.19
2024-04-23T16:14:51.580Z,10.19
2024-04-23T16:17:18.239Z,10.10
2024-04-23T16:19:44.955Z,10.00
2024-04-23T16:22:11.572Z,9.94
2024-04-23T16:24:38.135Z,9.88
2024-04-23T16:27:05.385Z,9.80
2024-04-23T16:29:31.905Z,9.72
2024-04-23T16:31:58.603Z,9.61
2024-04-23T16:34:25.139Z,9.56
2024-04-23T16:36:52.109Z,9.54
2024-04-23T16:39:19.926Z,9.49
2024-04-23T16:41:49.700Z,9.43
2024-04-23T16:44:16.256Z,9.43
2024-04-23T16:46:43.044Z,9.39
2024-04-23T16:49:09.623Z,9.35
2024-04-23T16:51:36.169Z,9.29
2024-04-23T16:54:03.802Z,9.22
2024-04-23T16:56:30.673Z,9.17
2024-04-23T16:58:57.105Z,9.07
2024-04-23T17:01:23.804Z,9.01
2024-04-23T17:03:50.440Z,8.96
2024-04-23T17:06:17.031Z,8.88
2024-04-23T17:08:43.786Z,8.84
2024-04-23T17:11:10.360Z,8.81
2024-04-23T17:13:37.042Z,8.76
2024-04-23T17:16:16.955Z,8.69
2024-04-23T17:18:43.568Z,8.60
2024-04-23T17:21:14.216Z,8.48
2024-04-23T17:23:40.808Z,8.41
2024-04-23T17:26:07.411Z,8.33
2024-04-23T17:28:34.046Z,8.25
2024-04-23T17:31:01.319Z,8.16
2024-04-23T17:33:27.904Z,8.05
2024-04-23T17:35:58.001Z,7.97
2024-04-23T17:38:27.723Z,7.88
2024-04-23T17:40:54.499Z,7.76
2024-04-23T17:43:21.739Z,7.65
2024-04-23T17:45:51.489Z,7.53
2024-04-23T17:48:18.220Z,7.40
2024-04-23T17:50:44.941Z,7.27
2024-04-23T17:53:11.603Z,7.13
2024-04-23T17:55:39.209Z,7.04
2024-04-23T17:58:05.858Z,7.04
2024-04-23T18:00:32.477Z,6.91
2024-04-23T18:03:02.002Z,6.79
2024-04-23T18:05:28.600Z,6.63
2024-04-23T18:07:55.110Z,6.49
2024-04-23T18:10:21.704Z,6.37
2024-04-23T18:12:48.203Z,6.24
2024-04-23T18:15:14.842Z,6.12
2024-04-23T18:17:41.354Z,6.01
2024-04-23T18:20:08.288Z,5.88
2024-04-23T18:22:36.913Z,5.78
2024-04-23T18:25:04.300Z,5.67
2024-04-23T18:27:31.109Z,5.56
2024-04-23T18:29:57.558Z,5.48
2024-04-23T18:32:24.997Z,5.39
2024-04-23T18:34:51.622Z,5.31
2024-04-23T18:37:18.066Z,5.24
2024-04-23T18:39:44.646Z,5.15
2024-04-23T18:42:13.159Z,5.08
2024-04-23T18:44:39.712Z,5.02
2024-04-23T18:47:06.886Z,4.97
2024-04-23T18:49:33.427Z,4.93
2024-04-23T18:52:00.155Z,4.90
2024-04-23T18:54:26.668Z,4.87
2024-04-23T18:56:54.618Z,4.83
2024-04-23T18:59:21.414Z,4.79
2024-04-23T19:01:48.073Z,4.75
2024-04-23T19:04:14.698Z,4.71
2024-04-23T19:06:41.498Z,4.67
2024-04-23T19:09:08.100Z,4.62
2024-04-23T19:11:34.839Z,4.56
2024-04-23T19:14:11.101Z,4.51
2024-04-23T19:16:43.684Z,4.46
2024-04-23T19:19:10.368Z,4.43
2024-04-23T19:21:37.242Z,4.40
2024-04-23T19:24:03.993Z,4.38
2024-04-23T19:26:30.479Z,4.35
2024-04-23T19:28:57.001Z,4.33
2024-04-23T19:31:23.626Z,4.32
2024-04-23T19:33:50.486Z,4.31
2024-04-23T19:36:17.063Z,4.29
2024-04-23T19:38:44.803Z,4.28
2024-04-23T19:41:13.298Z,4.26
2024-04-23T19:43:51.547Z,4.26
2024-04-23T19:46:21.189Z,4.27
2024-04-23T19:48:48.743Z,4.27
2024-04-23T19:51:20.762Z,4.28
2024-04-23T19:53:50.718Z,4.29
2024-04-23T19:56:34.685Z,4.32
2024-04-23T19:59:02.803Z,4.34
2024-04-23T20:01:33.294Z,4.35
2024-04-23T20:03:59.907Z,4.33
2024-04-23T20:06:26.498Z,4.33
2024-04-23T20:08:53.034Z,4.32
2024-04-23T20:11:19.760Z,4.33
2024-04-23T20:13:46.415Z,4.32
2024-04-23T20:16:12.963Z,4.33
2024-04-23T20:18:39.657Z,4.33
2024-04-23T20:21:13.698Z,4.32
2024-04-23T20:23:41.054Z,4.31
2024-04-23T20:26:07.727Z,4.31
2024-04-23T20:28:34.247Z,4.28
2024-04-23T20:31:02.047Z,4.26
2024-04-23T20:33:28.536Z,4.27
2024-04-23T20:36:02.477Z,4.28
2024-04-23T20:38:29.065Z,4.30
2024-04-23T20:40:55.599Z,4.34
2024-04-23T20:43:22.335Z,4.39
2024-04-23T20:45:49.022Z,4.43
2024-04-23T20:48:18.597Z,4.44
2024-04-23T20:50:50.333Z,4.45
2024-04-23T20:53:16.992Z,4.44
2024-04-23T20:55:43.642Z,4.45
2024-04-23T20:58:10.149Z,4.46
2024-04-23T21:00:36.716Z,4.48
2024-04-23T21:03:04.105Z,4.49
2024-04-23T21:05:30.987Z,4.52
2024-04-23T21:07:57.598Z,4.53
2024-04-23T21:10:24.211Z,4.55
2024-04-23T21:12:50.682Z,4.55
2024-04-23T21:15:17.146Z,4.55
2024-04-23T21:17:43.868Z,4.54
2024-04-23T21:20:10.557Z,4.55
2024-04-23T21:22:37.168Z,4.57
2024-04-23T21:25:03.931Z,4.58
2024-04-23T21:27:30.438Z,4.59
2024-04-23T21:29:56.919Z,4.60
2024-04-23T21:32:24.545Z,4.59
2024-04-23T21:34:51.255Z,4.58
2024-04-23T21:37:17.710Z,4.55
2024-04-23T21:39:44.110Z,4.53
2024-04-23T21:42:12.603Z,4.52
2024-04-23T21:44:40.710Z,4.51
2024-04-23T21:47:07.410Z,4.50
2024-04-23T21:49:33.859Z,4.48
2024-04-23T21:52:16.485Z,4.46
2024-04-23T21:54:47.235Z,4.45
2024-04-23T21:57:14.172Z,4.44
2024-04-23T21:59:41.081Z,4.42
2024-04-23T22:02:07.662Z,4.37
2024-04-23T22:04:34.315Z,4.33
2024-04-23T22:07:00.850Z,4.34
2024-04-23T22:09:27.337Z,4.35
2024-04-23T22:11:53.970Z,4.37
2024-04-23T22:14:20.609Z,4.40
2024-04-23T22:16:48.079Z,4.42
2024-04-23T22:19:14.906Z,4.44
2024-04-23T22:21:41.415Z,4.45
2024-04-23T22:24:08.231Z,4.46
2024-04-23T22:26:34.759Z,4.49
2024-04-23T22:29:01.314Z,4.52
2024-04-23T22:31:27.878Z,4.55
2024-04-23T22:33:54.423Z,4.60
2024-04-23T22:36:21.071Z,4.65
2024-04-23T22:38:47.559Z,4.70
2024-04-23T22:41:14.179Z,4.74
2024-04-23T22:43:40.674Z,4.77
2024-04-23T22:46:07.139Z,4.79
2024-04-23T22:48:34.316Z,4.81
2024-04-23T22:51:01.168Z,4.82
2024-04-23T22:53:27.644Z,4.81
2024-04-23T22:55:54.214Z,4.79
2024-04-23T22:58:22.449Z,4.75
2024-04-23T23:00:49.040Z,4.73
2024-04-23T23:03:15.721Z,4.74
2024-04-23T23:05:42.494Z,4.74
2024-04-23T23:08:08.959Z,4.73
2024-04-23T23:10:35.858Z,4.72
2024-04-23T23:13:02.382Z,4.69
2024-04-23T23:15:28.800Z,4.67
2024-04-23T23:17:55.263Z,4.66
2024-04-23T23:20:21.932Z,4.63
2024-04-23T23:22:50.163Z,4.58
2024-04-23T23:25:16.800Z,4.56
2024-04-23T23:27:43.253Z,4.54
2024-04-23T23:30:10.057Z,4.54
2024-04-23T23:32:36.733Z,4.54
2024-04-23T23:35:03.427Z,4.54
2024-04-23T23:37:29.940Z,4.53
2024-04-23T23:42:40.649Z,4.48
2024-04-23T23:45:10.319Z,4.46
2024-04-23T23:47:37.347Z,4.45
2024-04-23T23:50:04.848Z,4.44
2024-04-23T23:52:31.441Z,4.43
2024-04-23T23:54:57.999Z,4.43
2024-04-23T23:57:24.435Z,4.44
2024-04-23T23:59:51.185Z,4.45
